sensor_id;sensor_type;location;lat;lon;timestamp;P1;durP1;ratioP1;P2;durP2;ratioP2
77522;SDS011;66637;-29.628;-49.938;2023-05-29T00:00:33;12.48;;;1.05;;
77522;SDS011;66637;-29.628;-49.938;2023-05-29T00:03:06;3.38;;;0.63;;
77522;SDS011;66637;-29.628;-49.938;2023-05-29T00:05:39;9.68;;;0.90;;
77522;SDS011;66637;-29.628;-49.938;2023-05-29T00:08:10;4.22;;;0.75;;
77522;SDS011;66637;-29.628;-49.938;2023-05-29T00:10:44;5.50;;;0.90;;
77522;SDS011;66637;-29.628;-49.938;2023-05-29T00:13:26;4.03;;;0.82;;
77522;SDS011;66637;-29.628;-49.938;2023-05-29T00:16:03;11.80;;;1.50;;
77522;SDS011;66637;-29.628;-49.938;2023-05-29T00:18:36;10.48;;;1.13;;
77522;SDS011;66637;-29.628;-49.938;2023-05-29T00:21:16;7.47;;;0.77;;
77522;SDS011;66637;-29.628;-49.938;2023-05-29T00:23:51;4.35;;;0.65;;
77522;SDS011;66637;-29.628;-49.938;2023-05-29T00:26:24;5.78;;;0.80;;
77522;SDS011;66637;-29.628;-49.938;2023-05-29T00:29:00;5.18;;;0.70;;
77522;SDS011;66637;-29.628;-49.938;2023-05-29T00:31:34;3.92;;;0.93;;
77522;SDS011;66637;-29.628;-49.938;2023-05-29T00:34:09;6.90;;;0.60;;
77522;SDS011;66637;-29.628;-49.938;2023-05-29T00:36:43;6.20;;;0.80;;
77522;SDS011;66637;-29.628;-49.938;2023-05-29T00:39:22;4.18;;;0.80;;
77522;SDS011;66637;-29.628;-49.938;2023-05-29T00:41:57;4.75;;;0.90;;
77522;SDS011;66637;-29.628;-49.938;2023-05-29T00:44:39;9.85;;;0.80;;
77522;SDS011;66637;-29.628;-49.938;2023-05-29T00:47:19;6.63;;;0.77;;
77522;SDS011;66637;-29.628;-49.938;2023-05-29T00:49:56;6.20;;;0.60;;
77522;SDS011;66637;-29.628;-49.938;2023-05-29T00:52:28;4.78;;;0.70;;
77522;SDS011;66637;-29.628;-49.938;2023-05-29T00:55:08;7.05;;;0.85;;
77522;SDS011;66637;-29.628;-49.938;2023-05-29T00:57:41;2.78;;;0.68;;
77522;SDS011;66637;-29.628;-49.938;2023-05-29T01:00:21;7.80;;;1.00;;
77522;SDS011;66637;-29.628;-49.938;2023-05-29T01:02:59;2.80;;;0.70;;
77522;SDS011;66637;-29.628;-49.938;2023-05-29T01:05:38;5.70;;;0.80;;
77522;SDS011;66637;-29.628;-49.938;2023-05-29T01:08:12;5.70;;;0.90;;
77522;SDS011;66637;-29.628;-49.938;2023-05-29T01:10:45;5.32;;;1.10;;
77522;SDS011;66637;-29.628;-49.938;2023-05-29T01:13:23;5.05;;;0.90;;
77522;SDS011;66637;-29.628;-49.938;2023-05-29T01:16:26;4.65;;;0.70;;
77522;SDS011;66637;-29.628;-49.938;2023-05-29T01:19:30;2.83;;;0.52;;
77522;SDS011;66637;-29.628;-49.938;2023-05-29T01:28:51;1.92;;;0.40;;
77522;SDS011;66637;-29.628;-49.938;2023-05-29T01:31:27;7.13;;;0.80;;
77522;SDS011;66637;-29.628;-49.938;2023-05-29T01:33:59;8.43;;;0.80;;
77522;SDS011;66637;-29.628;-49.938;2023-05-29T01:36:43;6.32;;;0.70;;
77522;SDS011;66637;-29.628;-49.938;2023-05-29T01:39:18;4.15;;;0.70;;
77522;SDS011;66637;-29.628;-49.938;2023-05-29T01:41:58;4.63;;;0.70;;
77522;SDS011;66637;-29.628;-49.938;2023-05-29T01:44:34;3.20;;;0.90;;
77522;SDS011;66637;-29.628;-49.938;2023-05-29T01:47:15;4.95;;;0.50;;
77522;SDS011;66637;-29.628;-49.938;2023-05-29T01:49:48;5.88;;;0.50;;
77522;SDS011;66637;-29.628;-49.938;2023-05-29T01:52:22;5.50;;;1.00;;
77522;SDS011;66637;-29.628;-49.938;2023-05-29T01:54:56;5.00;;;0.90;;
77522;SDS011;66637;-29.628;-49.938;2023-05-29T01:57:27;4.68;;;0.90;;
77522;SDS011;66637;-29.628;-49.938;2023-05-29T01:59:59;5.88;;;1.15;;
77522;SDS011;66637;-29.628;-49.938;2023-05-29T02:02:54;4.32;;;0.70;;
77522;SDS011;66637;-29.628;-49.938;2023-05-29T02:05:27;6.32;;;0.90;;
77522;SDS011;66637;-29.628;-49.938;2023-05-29T02:08:00;4.50;;;0.80;;
77522;SDS011;66637;-29.628;-49.938;2023-05-29T02:10:44;4.10;;;0.70;;
77522;SDS011;66637;-29.628;-49.938;2023-05-29T02:13:18;5.20;;;0.63;;
77522;SDS011;66637;-29.628;-49.938;2023-05-29T02:15:53;17.63;;;1.95;;
77522;SDS011;66637;-29.628;-49.938;2023-05-29T02:18:24;23.00;;;2.80;;
77522;SDS011;66637;-29.628;-49.938;2023-05-29T02:20:58;24.17;;;2.67;;
77522;SDS011;66637;-29.628;-49.938;2023-05-29T02:23:33;16.63;;;1.95;;
77522;SDS011;66637;-29.628;-49.938;2023-05-29T02:26:03;12.68;;;1.30;;
77522;SDS011;66637;-29.628;-49.938;2023-05-29T02:28:35;8.75;;;1.33;;
77522;SDS011;66637;-29.628;-49.938;2023-05-29T02:31:06;6.15;;;0.73;;
77522;SDS011;66637;-29.628;-49.938;2023-05-29T02:33:39;10.48;;;1.10;;
77522;SDS011;66637;-29.628;-49.938;2023-05-29T02:36:11;16.35;;;1.40;;
77522;SDS011;66637;-29.628;-49.938;2023-05-29T02:38:46;11.63;;;1.10;;
77522;SDS011;66637;-29.628;-49.938;2023-05-29T02:41:18;12.18;;;1.50;;
77522;SDS011;66637;-29.628;-49.938;2023-05-29T02:43:51;9.75;;;1.45;;
77522;SDS011;66637;-29.628;-49.938;2023-05-29T02:46:23;6.75;;;1.30;;
77522;SDS011;66637;-29.628;-49.938;2023-05-29T02:48:53;7.13;;;1.27;;
77522;SDS011;66637;-29.628;-49.938;2023-05-29T02:51:25;4.82;;;0.98;;
77522;SDS011;66637;-29.628;-49.938;2023-05-29T02:54:08;6.75;;;0.90;;
77522;SDS011;66637;-29.628;-49.938;2023-05-29T02:56:43;8.27;;;0.80;;
77522;SDS011;66637;-29.628;-49.938;2023-05-29T02:59:21;7.63;;;1.05;;
77522;SDS011;66637;-29.628;-49.938;2023-05-29T03:01:52;5.32;;;0.80;;
77522;SDS011;66637;-29.628;-49.938;2023-05-29T03:04:24;4.65;;;0.43;;
77522;SDS011;66637;-29.628;-49.938;2023-05-29T03:07:08;6.43;;;0.70;;
77522;SDS011;66637;-29.628;-49.938;2023-05-29T03:09:39;3.75;;;0.45;;
77522;SDS011;66637;-29.628;-49.938;2023-05-29T03:12:10;4.93;;;0.95;;
77522;SDS011;66637;-29.628;-49.938;2023-05-29T03:14:40;4.63;;;1.00;;
77522;SDS011;66637;-29.628;-49.938;2023-05-29T03:17:14;5.72;;;1.00;;
77522;SDS011;66637;-29.628;-49.938;2023-05-29T03:19:44;3.78;;;0.80;;
77522;SDS011;66637;-29.628;-49.938;2023-05-29T03:22:15;4.43;;;0.90;;
77522;SDS011;66637;-29.628;-49.938;2023-05-29T03:24:46;7.45;;;1.00;;
77522;SDS011;66637;-29.628;-49.938;2023-05-29T03:27:16;5.43;;;0.55;;
77522;SDS011;66637;-29.628;-49.938;2023-05-29T03:29:56;4.55;;;0.68;;
77522;SDS011;66637;-29.628;-49.938;2023-05-29T03:32:27;5.28;;;0.88;;
77522;SDS011;66637;-29.628;-49.938;2023-05-29T03:34:57;9.15;;;1.73;;
77522;SDS011;66637;-29.628;-49.938;2023-05-29T03:37:27;6.63;;;1.10;;
77522;SDS011;66637;-29.628;-49.938;2023-05-29T03:39:58;5.38;;;1.30;;
77522;SDS011;66637;-29.628;-49.938;2023-05-29T03:42:28;4.72;;;1.10;;
77522;SDS011;66637;-29.628;-49.938;2023-05-29T03:45:01;4.43;;;0.63;;
77522;SDS011;66637;-29.628;-49.938;2023-05-29T03:47:34;10.48;;;1.10;;
77522;SDS011;66637;-29.628;-49.938;2023-05-29T03:50:18;4.22;;;1.15;;
77522;SDS011;66637;-29.628;-49.938;2023-05-29T03:52:48;5.38;;;1.40;;
77522;SDS011;66637;-29.628;-49.938;2023-05-29T03:55:19;7.53;;;1.75;;
77522;SDS011;66637;-29.628;-49.938;2023-05-29T03:57:50;5.32;;;1.20;;
77522;SDS011;66637;-29.628;-49.938;2023-05-29T04:00:21;5.60;;;0.63;;
77522;SDS011;66637;-29.628;-49.938;2023-05-29T04:02:52;7.53;;;0.75;;
77522;SDS011;66637;-29.628;-49.938;2023-05-29T04:05:25;5.30;;;0.40;;
77522;SDS011;66637;-29.628;-49.938;2023-05-29T04:07:56;4.05;;;0.60;;
77522;SDS011;66637;-29.628;-49.938;2023-05-29T04:10:41;3.33;;;0.40;;
77522;SDS011;66637;-29.628;-49.938;2023-05-29T04:13:13;2.53;;;0.28;;
77522;SDS011;66637;-29.628;-49.938;2023-05-29T04:15:44;3.70;;;0.30;;
77522;SDS011;66637;-29.628;-49.938;2023-05-29T04:18:15;6.13;;;0.47;;
77522;SDS011;66637;-29.628;-49.938;2023-05-29T04:20:45;3.42;;;0.40;;
77522;SDS011;66637;-29.628;-49.938;2023-05-29T04:23:20;6.07;;;0.63;;
77522;SDS011;66637;-29.628;-49.938;2023-05-29T04:25:52;3.80;;;0.30;;
77522;SDS011;66637;-29.628;-49.938;2023-05-29T04:28:26;3.10;;;0.60;;
77522;SDS011;66637;-29.628;-49.938;2023-05-29T04:30:58;4.60;;;0.70;;
77522;SDS011;66637;-29.628;-49.938;2023-05-29T04:33:31;6.03;;;0.60;;
77522;SDS011;66637;-29.628;-49.938;2023-05-29T04:36:03;6.63;;;1.40;;
77522;SDS011;66637;-29.628;-49.938;2023-05-29T04:38:48;9.13;;;1.00;;
77522;SDS011;66637;-29.628;-49.938;2023-05-29T04:41:22;4.65;;;0.80;;
77522;SDS011;66637;-29.628;-49.938;2023-05-29T04:44:00;4.10;;;0.40;;
77522;SDS011;66637;-29.628;-49.938;2023-05-29T04:46:41;3.30;;;0.60;;
77522;SDS011;66637;-29.628;-49.938;2023-05-29T04:49:14;2.75;;;0.60;;
77522;SDS011;66637;-29.628;-49.938;2023-05-29T04:51:45;6.07;;;0.50;;
77522;SDS011;66637;-29.628;-49.938;2023-05-29T04:54:17;4.43;;;0.32;;
77522;SDS011;66637;-29.628;-49.938;2023-05-29T04:59:28;3.00;;;0.40;;
77522;SDS011;66637;-29.628;-49.938;2023-05-29T05:02:00;3.70;;;0.45;;
77522;SDS011;66637;-29.628;-49.938;2023-05-29T05:04:31;3.35;;;0.25;;
77522;SDS011;66637;-29.628;-49.938;2023-05-29T05:07:04;2.25;;;0.30;;
77522;SDS011;66637;-29.628;-49.938;2023-05-29T05:09:38;0.63;;;0.17;;
77522;SDS011;66637;-29.628;-49.938;2023-05-29T05:12:17;5.13;;;0.52;;
77522;SDS011;66637;-29.628;-49.938;2023-05-29T05:14:47;3.42;;;0.60;;
77522;SDS011;66637;-29.628;-49.938;2023-05-29T05:17:18;2.65;;;0.20;;
77522;SDS011;66637;-29.628;-49.938;2023-05-29T05:19:49;2.25;;;0.40;;
77522;SDS011;66637;-29.628;-49.938;2023-05-29T05:22:27;2.50;;;0.35;;
77522;SDS011;66637;-29.628;-49.938;2023-05-29T05:24:58;3.00;;;0.28;;
77522;SDS011;66637;-29.628;-49.938;2023-05-29T05:27:32;3.78;;;0.30;;
77522;SDS011;66637;-29.628;-49.938;2023-05-29T05:30:04;3.28;;;0.30;;
77522;SDS011;66637;-29.628;-49.938;2023-05-29T05:32:37;6.72;;;1.10;;
77522;SDS011;66637;-29.628;-49.938;2023-05-29T05:35:09;4.15;;;0.43;;
77522;SDS011;66637;-29.628;-49.938;2023-05-29T05:37:41;2.45;;;0.32;;
77522;SDS011;66637;-29.628;-49.938;2023-05-29T05:40:12;2.60;;;0.17;;
77522;SDS011;66637;-29.628;-49.938;2023-05-29T05:42:56;1.35;;;0.10;;
77522;SDS011;66637;-29.628;-49.938;2023-05-29T05:45:34;1.40;;;0.10;;
77522;SDS011;66637;-29.628;-49.938;2023-05-29T05:48:11;2.38;;;0.30;;
77522;SDS011;66637;-29.628;-49.938;2023-05-29T05:50:42;1.48;;;0.13;;
77522;SDS011;66637;-29.628;-49.938;2023-05-29T05:53:13;0.98;;;0.28;;
77522;SDS011;66637;-29.628;-49.938;2023-05-29T05:55:44;0.95;;;0.17;;
77522;SDS011;66637;-29.628;-49.938;2023-05-29T05:58:15;1.98;;;0.15;;
77522;SDS011;66637;-29.628;-49.938;2023-05-29T06:00:45;0.85;;;0.10;;
77522;SDS011;66637;-29.628;-49.938;2023-05-29T06:03:16;4.00;;;0.25;;
77522;SDS011;66637;-29.628;-49.938;2023-05-29T06:05:56;1.58;;;0.20;;
77522;SDS011;66637;-29.628;-49.938;2023-05-29T06:08:26;2.17;;;0.22;;
77522;SDS011;66637;-29.628;-49.938;2023-05-29T06:10:57;2.95;;;0.17;;
77522;SDS011;66637;-29.628;-49.938;2023-05-29T06:13:30;3.15;;;0.20;;
77522;SDS011;66637;-29.628;-49.938;2023-05-29T06:16:07;1.13;;;0.20;;
77522;SDS011;66637;-29.628;-49.938;2023-05-29T06:18:38;3.40;;;0.20;;
77522;SDS011;66637;-29.628;-49.938;2023-05-29T06:21:09;1.55;;;0.10;;
77522;SDS011;66637;-29.628;-49.938;2023-05-29T06:23:46;2.55;;;0.20;;
77522;SDS011;66637;-29.628;-49.938;2023-05-29T06:26:18;3.53;;;0.30;;
77522;SDS011;66637;-29.628;-49.938;2023-05-29T06:29:02;3.10;;;0.13;;
77522;SDS011;66637;-29.628;-49.938;2023-05-29T06:31:32;3.33;;;0.25;;
77522;SDS011;66637;-29.628;-49.938;2023-05-29T06:34:03;3.00;;;0.32;;
77522;SDS011;66637;-29.628;-49.938;2023-05-29T06:36:37;4.63;;;0.30;;
77522;SDS011;66637;-29.628;-49.938;2023-05-29T06:39:10;1.90;;;0.10;;
77522;SDS011;66637;-29.628;-49.938;2023-05-29T06:41:41;2.67;;;0.40;;
77522;SDS011;66637;-29.628;-49.938;2023-05-29T06:44:17;1.95;;;0.30;;
77522;SDS011;66637;-29.628;-49.938;2023-05-29T06:46:48;4.78;;;0.35;;
77522;SDS011;66637;-29.628;-49.938;2023-05-29T06:49:21;2.33;;;0.20;;
77522;SDS011;66637;-29.628;-49.938;2023-05-29T06:51:58;2.83;;;0.20;;
77522;SDS011;66637;-29.628;-49.938;2023-05-29T06:54:49;1.70;;;0.20;;
77522;SDS011;66637;-29.628;-49.938;2023-05-29T06:57:20;3.03;;;0.35;;
77522;SDS011;66637;-29.628;-49.938;2023-05-29T06:59:51;3.65;;;0.73;;
77522;SDS011;66637;-29.628;-49.938;2023-05-29T07:02:23;2.40;;;0.30;;
77522;SDS011;66637;-29.628;-49.938;2023-05-29T07:04:57;3.67;;;0.45;;
77522;SDS011;66637;-29.628;-49.938;2023-05-29T07:07:28;2.40;;;0.40;;
77522;SDS011;66637;-29.628;-49.938;2023-05-29T07:10:00;2.17;;;0.40;;
77522;SDS011;66637;-29.628;-49.938;2023-05-29T07:12:33;1.98;;;0.30;;
77522;SDS011;66637;-29.628;-49.938;2023-05-29T07:15:04;3.67;;;0.30;;
77522;SDS011;66637;-29.628;-49.938;2023-05-29T07:17:37;2.25;;;0.30;;
77522;SDS011;66637;-29.628;-49.938;2023-05-29T07:20:15;4.00;;;0.32;;
77522;SDS011;66637;-29.628;-49.938;2023-05-29T07:22:49;3.40;;;0.40;;
77522;SDS011;66637;-29.628;-49.938;2023-05-29T07:25:20;1.17;;;0.30;;
77522;SDS011;66637;-29.628;-49.938;2023-05-29T07:27:52;1.52;;;0.20;;
77522;SDS011;66637;-29.628;-49.938;2023-05-29T07:30:22;5.95;;;0.50;;
77522;SDS011;66637;-29.628;-49.938;2023-05-29T07:32:57;2.75;;;0.30;;
77522;SDS011;66637;-29.628;-49.938;2023-05-29T07:35:28;2.85;;;0.43;;
77522;SDS011;66637;-29.628;-49.938;2023-05-29T07:38:04;1.95;;;0.32;;
77522;SDS011;66637;-29.628;-49.938;2023-05-29T07:40:48;3.63;;;0.20;;
77522;SDS011;66637;-29.628;-49.938;2023-05-29T07:43:30;3.08;;;0.30;;
77522;SDS011;66637;-29.628;-49.938;2023-05-29T07:46:05;2.88;;;0.20;;
77522;SDS011;66637;-29.628;-49.938;2023-05-29T07:48:39;4.20;;;0.38;;
77522;SDS011;66637;-29.628;-49.938;2023-05-29T07:51:23;2.30;;;0.30;;
77522;SDS011;66637;-29.628;-49.938;2023-05-29T07:53:54;2.63;;;0.30;;
77522;SDS011;66637;-29.628;-49.938;2023-05-29T07:56:24;3.95;;;0.30;;
77522;SDS011;66637;-29.628;-49.938;2023-05-29T07:58:56;1.98;;;0.20;;
77522;SDS011;66637;-29.628;-49.938;2023-05-29T08:01:29;5.57;;;0.57;;
77522;SDS011;66637;-29.628;-49.938;2023-05-29T08:04:01;2.42;;;0.30;;
77522;SDS011;66637;-29.628;-49.938;2023-05-29T08:06:33;2.80;;;0.32;;
77522;SDS011;66637;-29.628;-49.938;2023-05-29T08:09:04;3.30;;;0.30;;
77522;SDS011;66637;-29.628;-49.938;2023-05-29T08:11:36;1.27;;;0.20;;
77522;SDS011;66637;-29.628;-49.938;2023-05-29T08:14:08;4.03;;;0.52;;
77522;SDS011;66637;-29.628;-49.938;2023-05-29T08:16:39;4.22;;;0.40;;
77522;SDS011;66637;-29.628;-49.938;2023-05-29T08:19:11;4.88;;;0.38;;
77522;SDS011;66637;-29.628;-49.938;2023-05-29T08:21:42;7.28;;;0.38;;
77522;SDS011;66637;-29.628;-49.938;2023-05-29T08:24:13;3.00;;;0.38;;
77522;SDS011;66637;-29.628;-49.938;2023-05-29T08:26:43;3.58;;;0.30;;
77522;SDS011;66637;-29.628;-49.938;2023-05-29T08:29:13;3.67;;;0.30;;
77522;SDS011;66637;-29.628;-49.938;2023-05-29T08:31:45;1.80;;;0.30;;
77522;SDS011;66637;-29.628;-49.938;2023-05-29T08:34:17;4.43;;;0.30;;
77522;SDS011;66637;-29.628;-49.938;2023-05-29T08:36:49;1.40;;;0.15;;
77522;SDS011;66637;-29.628;-49.938;2023-05-29T08:39:20;1.63;;;0.30;;
77522;SDS011;66637;-29.628;-49.938;2023-05-29T08:44:46;2.88;;;0.45;;
77522;SDS011;66637;-29.628;-49.938;2023-05-29T08:47:32;2.15;;;0.45;;
77522;SDS011;66637;-29.628;-49.938;2023-05-29T08:50:03;3.50;;;0.40;;
77522;SDS011;66637;-29.628;-49.938;2023-05-29T08:52:35;3.03;;;0.30;;
77522;SDS011;66637;-29.628;-49.938;2023-05-29T08:55:07;7.13;;;0.30;;
77522;SDS011;66637;-29.628;-49.938;2023-05-29T08:57:38;4.03;;;0.40;;
77522;SDS011;66637;-29.628;-49.938;2023-05-29T09:00:12;3.13;;;0.55;;
77522;SDS011;66637;-29.628;-49.938;2023-05-29T09:02:47;2.08;;;0.30;;
77522;SDS011;66637;-29.628;-49.938;2023-05-29T09:05:18;1.38;;;0.20;;
77522;SDS011;66637;-29.628;-49.938;2023-05-29T09:07:50;3.05;;;0.50;;
77522;SDS011;66637;-29.628;-49.938;2023-05-29T09:10:21;3.85;;;0.50;;
77522;SDS011;66637;-29.628;-49.938;2023-05-29T09:12:52;3.83;;;0.38;;
77522;SDS011;66637;-29.628;-49.938;2023-05-29T09:15:24;3.25;;;0.47;;
77522;SDS011;66637;-29.628;-49.938;2023-05-29T09:17:56;2.67;;;0.30;;
77522;SDS011;66637;-29.628;-49.938;2023-05-29T09:20:27;2.40;;;0.20;;
77522;SDS011;66637;-29.628;-49.938;2023-05-29T09:23:10;3.38;;;0.30;;
77522;SDS011;66637;-29.628;-49.938;2023-05-29T09:25:41;3.45;;;0.47;;
77522;SDS011;66637;-29.628;-49.938;2023-05-29T09:28:12;2.65;;;0.30;;
77522;SDS011;66637;-29.628;-49.938;2023-05-29T09:30:45;2.22;;;0.22;;
77522;SDS011;66637;-29.628;-49.938;2023-05-29T09:33:16;4.88;;;0.40;;
77522;SDS011;66637;-29.628;-49.938;2023-05-29T09:35:48;1.85;;;0.30;;
77522;SDS011;66637;-29.628;-49.938;2023-05-29T09:38:20;4.15;;;0.40;;
77522;SDS011;66637;-29.628;-49.938;2023-05-29T09:41:12;4.88;;;0.55;;
77522;SDS011;66637;-29.628;-49.938;2023-05-29T09:43:42;6.55;;;0.55;;
77522;SDS011;66637;-29.628;-49.938;2023-05-29T09:46:28;2.17;;;0.32;;
77522;SDS011;66637;-29.628;-49.938;2023-05-29T09:49:01;3.30;;;0.40;;
77522;SDS011;66637;-29.628;-49.938;2023-05-29T09:51:35;5.55;;;0.60;;
77522;SDS011;66637;-29.628;-49.938;2023-05-29T09:54:16;7.38;;;1.02;;
77522;SDS011;66637;-29.628;-49.938;2023-05-29T09:56:48;4.55;;;0.43;;
77522;SDS011;66637;-29.628;-49.938;2023-05-29T09:59:22;3.22;;;0.35;;
77522;SDS011;66637;-29.628;-49.938;2023-05-29T10:02:03;3.67;;;0.40;;
77522;SDS011;66637;-29.628;-49.938;2023-05-29T10:04:36;2.08;;;0.50;;
77522;SDS011;66637;-29.628;-49.938;2023-05-29T10:07:15;4.70;;;0.50;;
77522;SDS011;66637;-29.628;-49.938;2023-05-29T10:09:59;3.67;;;0.50;;
77522;SDS011;66637;-29.628;-49.938;2023-05-29T10:12:31;2.35;;;0.30;;
77522;SDS011;66637;-29.628;-49.938;2023-05-29T10:15:10;5.03;;;0.38;;
77522;SDS011;66637;-29.628;-49.938;2023-05-29T10:17:44;1.50;;;0.40;;
77522;SDS011;66637;-29.628;-49.938;2023-05-29T10:20:23;4.20;;;0.47;;
77522;SDS011;66637;-29.628;-49.938;2023-05-29T10:22:58;5.18;;;0.40;;
77522;SDS011;66637;-29.628;-49.938;2023-05-29T10:28:04;3.30;;;0.28;;
77522;SDS011;66637;-29.628;-49.938;2023-05-29T10:30:39;4.95;;;0.40;;
77522;SDS011;66637;-29.628;-49.938;2023-05-29T10:36:18;4.95;;;0.38;;
77522;SDS011;66637;-29.628;-49.938;2023-05-29T10:38:53;2.50;;;0.17;;
77522;SDS011;66637;-29.628;-49.938;2023-05-29T10:44:01;1.35;;;0.25;;
77522;SDS011;66637;-29.628;-49.938;2023-05-29T10:47:15;1.73;;;0.30;;
77522;SDS011;66637;-29.628;-49.938;2023-05-29T10:49:30;5.15;;;0.50;;
77522;SDS011;66637;-29.628;-49.938;2023-05-29T10:52:02;3.60;;;0.50;;
77522;SDS011;66637;-29.628;-49.938;2023-05-29T10:54:50;3.85;;;0.40;;
77522;SDS011;66637;-29.628;-49.938;2023-05-29T10:57:22;2.58;;;0.47;;
77522;SDS011;66637;-29.628;-49.938;2023-05-29T11:00:03;3.65;;;0.40;;
77522;SDS011;66637;-29.628;-49.938;2023-05-29T11:02:37;3.28;;;0.40;;
77522;SDS011;66637;-29.628;-49.938;2023-05-29T11:05:20;5.43;;;0.70;;
77522;SDS011;66637;-29.628;-49.938;2023-05-29T11:07:57;3.72;;;0.70;;
77522;SDS011;66637;-29.628;-49.938;2023-05-29T11:13:51;3.25;;;0.43;;
77522;SDS011;66637;-29.628;-49.938;2023-05-29T11:16:42;5.10;;;0.70;;
77522;SDS011;66637;-29.628;-49.938;2023-05-29T11:19:13;3.80;;;0.50;;
77522;SDS011;66637;-29.628;-49.938;2023-05-29T11:24:25;3.45;;;0.40;;
77522;SDS011;66637;-29.628;-49.938;2023-05-29T11:26:57;2.10;;;0.50;;
77522;SDS011;66637;-29.628;-49.938;2023-05-29T11:29:35;1.80;;;0.30;;
77522;SDS011;66637;-29.628;-49.938;2023-05-29T11:32:08;3.53;;;0.52;;
77522;SDS011;66637;-29.628;-49.938;2023-05-29T11:34:44;3.78;;;0.20;;
77522;SDS011;66637;-29.628;-49.938;2023-05-29T11:37:18;3.08;;;0.30;;
77522;SDS011;66637;-29.628;-49.938;2023-05-29T11:39:50;3.08;;;0.30;;
77522;SDS011;66637;-29.628;-49.938;2023-05-29T11:42:22;3.88;;;0.35;;
77522;SDS011;66637;-29.628;-49.938;2023-05-29T11:44:53;2.88;;;0.55;;
77522;SDS011;66637;-29.628;-49.938;2023-05-29T11:47:23;3.38;;;0.30;;
77522;SDS011;66637;-29.628;-49.938;2023-05-29T11:49:55;2.33;;;0.40;;
77522;SDS011;66637;-29.628;-49.938;2023-05-29T11:52:25;5.35;;;0.35;;
77522;SDS011;66637;-29.628;-49.938;2023-05-29T11:55:05;4.65;;;0.35;;
77522;SDS011;66637;-29.628;-49.938;2023-05-29T11:57:37;2.20;;;0.30;;
77522;SDS011;66637;-29.628;-49.938;2023-05-29T12:00:12;5.70;;;0.73;;
77522;SDS011;66637;-29.628;-49.938;2023-05-29T12:02:47;2.65;;;0.35;;
77522;SDS011;66637;-29.628;-49.938;2023-05-29T12:05:19;2.28;;;0.30;;
77522;SDS011;66637;-29.628;-49.938;2023-05-29T12:07:52;3.03;;;0.40;;
77522;SDS011;66637;-29.628;-49.938;2023-05-29T12:10:27;1.65;;;0.40;;
77522;SDS011;66637;-29.628;-49.938;2023-05-29T12:12:59;4.35;;;0.77;;
77522;SDS011;66637;-29.628;-49.938;2023-05-29T12:15:34;6.35;;;0.70;;
77522;SDS011;66637;-29.628;-49.938;2023-05-29T12:18:05;2.08;;;0.50;;
77522;SDS011;66637;-29.628;-49.938;2023-05-29T12:20:37;2.30;;;0.30;;
77522;SDS011;66637;-29.628;-49.938;2023-05-29T12:23:08;2.97;;;0.50;;
77522;SDS011;66637;-29.628;-49.938;2023-05-29T12:25:39;4.13;;;1.02;;
77522;SDS011;66637;-29.628;-49.938;2023-05-29T12:28:16;5.15;;;0.60;;
77522;SDS011;66637;-29.628;-49.938;2023-05-29T12:30:50;4.10;;;0.50;;
77522;SDS011;66637;-29.628;-49.938;2023-05-29T12:33:28;2.30;;;0.40;;
77522;SDS011;66637;-29.628;-49.938;2023-05-29T12:36:08;1.83;;;0.30;;
77522;SDS011;66637;-29.628;-49.938;2023-05-29T12:38:49;1.73;;;0.30;;
77522;SDS011;66637;-29.628;-49.938;2023-05-29T12:41:25;1.58;;;0.20;;
77522;SDS011;66637;-29.628;-49.938;2023-05-29T12:43:56;3.90;;;0.30;;
77522;SDS011;66637;-29.628;-49.938;2023-05-29T12:46:34;2.58;;;0.25;;
77522;SDS011;66637;-29.628;-49.938;2023-05-29T12:49:16;2.10;;;0.30;;
77522;SDS011;66637;-29.628;-49.938;2023-05-29T12:51:53;1.75;;;0.20;;
77522;SDS011;66637;-29.628;-49.938;2023-05-29T12:54:23;2.22;;;0.30;;
77522;SDS011;66637;-29.628;-49.938;2023-05-29T12:56:54;2.75;;;0.40;;
77522;SDS011;66637;-29.628;-49.938;2023-05-29T12:59:26;1.58;;;0.25;;
77522;SDS011;66637;-29.628;-49.938;2023-05-29T13:01:57;4.45;;;0.30;;
77522;SDS011;66637;-29.628;-49.938;2023-05-29T13:04:28;3.75;;;0.45;;
77522;SDS011;66637;-29.628;-49.938;2023-05-29T13:07:00;5.47;;;0.45;;
77522;SDS011;66637;-29.628;-49.938;2023-05-29T13:09:31;3.58;;;0.28;;
77522;SDS011;66637;-29.628;-49.938;2023-05-29T13:12:03;2.20;;;0.22;;
77522;SDS011;66637;-29.628;-49.938;2023-05-29T13:14:35;1.63;;;0.20;;
77522;SDS011;66637;-29.628;-49.938;2023-05-29T13:17:07;3.17;;;0.10;;
77522;SDS011;66637;-29.628;-49.938;2023-05-29T13:19:39;2.58;;;0.30;;
77522;SDS011;66637;-29.628;-49.938;2023-05-29T13:22:10;3.42;;;0.30;;
77522;SDS011;66637;-29.628;-49.938;2023-05-29T13:24:41;2.83;;;0.30;;
77522;SDS011;66637;-29.628;-49.938;2023-05-29T13:27:11;3.00;;;0.20;;
77522;SDS011;66637;-29.628;-49.938;2023-05-29T13:29:47;3.42;;;0.30;;
77522;SDS011;66637;-29.628;-49.938;2023-05-29T13:32:17;4.38;;;0.30;;
77522;SDS011;66637;-29.628;-49.938;2023-05-29T13:34:51;21.13;;;2.40;;
77522;SDS011;66637;-29.628;-49.938;2023-05-29T13:37:22;9.80;;;0.88;;
77522;SDS011;66637;-29.628;-49.938;2023-05-29T13:39:54;2.47;;;0.43;;
77522;SDS011;66637;-29.628;-49.938;2023-05-29T13:42:24;10.75;;;0.98;;
77522;SDS011;66637;-29.628;-49.938;2023-05-29T13:44:56;10.98;;;1.13;;
77522;SDS011;66637;-29.628;-49.938;2023-05-29T13:47:28;7.70;;;1.25;;
77522;SDS011;66637;-29.628;-49.938;2023-05-29T13:50:01;6.22;;;0.90;;
77522;SDS011;66637;-29.628;-49.938;2023-05-29T13:52:32;2.47;;;0.28;;
77522;SDS011;66637;-29.628;-49.938;2023-05-29T13:55:04;1.83;;;0.13;;
77522;SDS011;66637;-29.628;-49.938;2023-05-29T13:57:37;10.80;;;1.10;;
77522;SDS011;66637;-29.628;-49.938;2023-05-29T14:00:09;8.95;;;1.20;;
77522;SDS011;66637;-29.628;-49.938;2023-05-29T14:02:41;9.65;;;1.10;;
77522;SDS011;66637;-29.628;-49.938;2023-05-29T14:05:13;22.25;;;2.97;;
77522;SDS011;66637;-29.628;-49.938;2023-05-29T14:07:43;3.33;;;0.50;;
77522;SDS011;66637;-29.628;-49.938;2023-05-29T14:10:15;12.98;;;1.55;;
77522;SDS011;66637;-29.628;-49.938;2023-05-29T14:12:46;41.67;;;3.30;;
77522;SDS011;66637;-29.628;-49.938;2023-05-29T14:15:18;3.63;;;0.50;;
77522;SDS011;66637;-29.628;-49.938;2023-05-29T14:17:52;4.47;;;0.40;;
77522;SDS011;66637;-29.628;-49.938;2023-05-29T14:20:24;15.32;;;1.13;;
77522;SDS011;66637;-29.628;-49.938;2023-05-29T14:22:56;11.32;;;1.08;;
77522;SDS011;66637;-29.628;-49.938;2023-05-29T14:25:28;9.95;;;0.90;;
77522;SDS011;66637;-29.628;-49.938;2023-05-29T14:27:58;6.55;;;0.93;;
77522;SDS011;66637;-29.628;-49.938;2023-05-29T14:30:30;12.95;;;1.45;;
77522;SDS011;66637;-29.628;-49.938;2023-05-29T14:33:02;21.63;;;2.08;;
77522;SDS011;66637;-29.628;-49.938;2023-05-29T14:35:34;8.63;;;0.73;;
77522;SDS011;66637;-29.628;-49.938;2023-05-29T14:38:04;6.78;;;0.75;;
77522;SDS011;66637;-29.628;-49.938;2023-05-29T14:40:38;14.95;;;1.70;;
77522;SDS011;66637;-29.628;-49.938;2023-05-29T14:43:11;9.15;;;0.73;;
77522;SDS011;66637;-29.628;-49.938;2023-05-29T14:45:41;9.75;;;1.20;;
77522;SDS011;66637;-29.628;-49.938;2023-05-29T14:48:13;11.18;;;1.20;;
77522;SDS011;66637;-29.628;-49.938;2023-05-29T14:50:47;5.72;;;0.65;;
77522;SDS011;66637;-29.628;-49.938;2023-05-29T14:53:17;20.02;;;2.00;;
77522;SDS011;66637;-29.628;-49.938;2023-05-29T14:55:50;26.88;;;2.33;;
77522;SDS011;66637;-29.628;-49.938;2023-05-29T14:58:23;16.85;;;2.47;;
77522;SDS011;66637;-29.628;-49.938;2023-05-29T15:00:54;12.25;;;1.58;;
77522;SDS011;66637;-29.628;-49.938;2023-05-29T15:03:27;11.00;;;1.27;;
77522;SDS011;66637;-29.628;-49.938;2023-05-29T15:05:59;6.05;;;0.90;;
77522;SDS011;66637;-29.628;-49.938;2023-05-29T15:08:35;18.40;;;1.30;;
77522;SDS011;66637;-29.628;-49.938;2023-05-29T15:11:06;24.05;;;2.53;;
77522;SDS011;66637;-29.628;-49.938;2023-05-29T15:13:39;15.32;;;1.70;;